createdAt,value
2023-03-27T00:01:27.789Z,99.90
2023-03-27T00:03:56.059Z,99.90
2023-03-27T00:06:25.389Z,99.90
2023-03-27T00:08:55.108Z,99.90
2023-03-27T00:11:25.129Z,99.90
2023-03-27T00:13:54.903Z,99.90
2023-03-27T00:16:25.328Z,99.90
2023-03-27T00:18:54.455Z,99.90
2023-03-27T00:21:23.489Z,99.90
2023-03-27T00:26:22.628Z,99.90
2023-03-27T00:28:50.822Z,99.90
2023-03-27T00:31:19.018Z,99.90
2023-03-27T00:33:47.326Z,99.90
2023-03-27T00:36:16.256Z,99.90
2023-03-27T00:38:45.853Z,99.90
2023-03-27T00:41:14.361Z,99.90
2023-03-27T00:43:45.533Z,99.90
2023-03-27T00:46:35.914Z,99.90
2023-03-27T00:49:07.297Z,99.90
2023-03-27T00:51:37.709Z,99.90
2023-03-27T00:54:07.496Z,99.90
2023-03-27T00:56:38.588Z,99.90
2023-03-27T00:59:13.228Z,99.90
2023-03-27T01:01:42.571Z,99.90
2023-03-27T01:04:11.483Z,99.90
2023-03-27T01:06:42.348Z,99.90
2023-03-27T01:09:11.184Z,99.90
2023-03-27T01:12:00.827Z,99.90
2023-03-27T01:14:38.844Z,99.90
2023-03-27T01:17:22.790Z,99.90
2023-03-27T01:20:47.186Z,99.90
2023-03-27T01:23:59.385Z,99.90
2023-03-27T01:27:03.411Z,99.90
2023-03-27T01:29:54.604Z,99.90
2023-03-27T01:33:04.822Z,99.90
2023-03-27T01:36:22.195Z,99.90
2023-03-27T01:39:20.164Z,99.90
2023-03-27T01:41:55.518Z,99.90
2023-03-27T01:44:43.353Z,99.90
2023-03-27T01:47:25.110Z,99.90
2023-03-27T01:50:01.530Z,99.90
2023-03-27T01:52:34.666Z,99.90
2023-03-27T01:55:09.826Z,99.90
2023-03-27T01:57:49.087Z,99.90
2023-03-27T02:00:21.924Z,99.90
2023-03-27T02:02:54.477Z,99.90
2023-03-27T02:05:28.686Z,99.90
2023-03-27T02:08:00.282Z,99.90
2023-03-27T02:10:35.084Z,99.90
2023-03-27T02:13:19.876Z,99.90
2023-03-27T02:15:51.315Z,99.90
2023-03-27T02:18:25.641Z,99.90
2023-03-27T02:20:54.108Z,99.90
2023-03-27T02:23:23.616Z,99.90
2023-03-27T02:25:55.286Z,99.90
2023-03-27T02:28:37.815Z,99.90
2023-03-27T02:31:32.334Z,99.90
2023-03-27T02:34:20.391Z,99.90
2023-03-27T02:36:56.315Z,99.90
2023-03-27T02:39:40.866Z,99.90
2023-03-27T02:42:18.862Z,99.90
2023-03-27T02:45:08.134Z,99.90
2023-03-27T02:47:41.723Z,99.90
2023-03-27T02:50:15.703Z,99.90
2023-03-27T02:52:51.200Z,99.90
2023-03-27T02:55:22.845Z,99.90
2023-03-27T02:57:59.534Z,99.90
2023-03-27T03:00:48.796Z,99.90
2023-03-27T03:03:41.831Z,99.90
2023-03-27T03:06:31.031Z,99.90
2023-03-27T03:09:03.689Z,99.90
2023-03-27T03:11:32.429Z,99.90
2023-03-27T03:14:02.622Z,99.90
2023-03-27T03:16:31.407Z,99.90
2023-03-27T03:18:59.715Z,99.90
2023-03-27T03:21:28.275Z,99.90
2023-03-27T03:23:58.284Z,99.90
2023-03-27T03:26:30.025Z,99.90
2023-03-27T03:29:00.113Z,99.90
2023-03-27T03:31:43.276Z,99.90
2023-03-27T03:34:12.859Z,99.90
2023-03-27T03:36:42.211Z,99.90
2023-03-27T03:39:11.370Z,99.90
2023-03-27T03:41:39.782Z,99.90
2023-03-27T03:44:08.374Z,99.90
2023-03-27T03:46:38.307Z,99.90
2023-03-27T03:49:07.153Z,99.90
2023-03-27T03:51:37.308Z,99.90
2023-03-27T03:54:07.160Z,99.90
2023-03-27T03:56:37.303Z,99.90
2023-03-27T03:59:05.668Z,99.90
2023-03-27T04:01:35.508Z,99.90
2023-03-27T04:04:09.330Z,99.90
2023-03-27T04:07:10.120Z,99.90
2023-03-27T04:09:44.743Z,99.90
2023-03-27T04:12:19.419Z,99.90
2023-03-27T04:14:58.092Z,99.90
2023-03-27T04:17:48.485Z,99.90
2023-03-27T04:20:18.676Z,99.90
2023-03-27T04:22:48.680Z,99.90
2023-03-27T04:25:19.151Z,99.90
2023-03-27T04:27:51.274Z,99.90
2023-03-27T04:30:27.735Z,99.90
2023-03-27T04:33:18.441Z,99.90
2023-03-27T04:36:17.547Z,99.90
2023-03-27T04:39:11.686Z,99.90
2023-03-27T04:41:39.956Z,99.90
2023-03-27T04:44:09.156Z,99.90
2023-03-27T04:46:41.962Z,99.90
2023-03-27T04:49:13.361Z,99.90
2023-03-27T04:51:58.432Z,99.90
2023-03-27T04:54:31.869Z,99.90
2023-03-27T04:57:03.309Z,99.90
2023-03-27T04:59:32.295Z,99.90
2023-03-27T05:02:19.140Z,99.90
2023-03-27T05:05:02.258Z,99.90
2023-03-27T05:07:34.895Z,99.90
2023-03-27T05:10:06.463Z,99.90
2023-03-27T05:12:35.618Z,99.90
2023-03-27T05:15:06.352Z,99.90
2023-03-27T05:17:43.271Z,99.90
2023-03-27T05:20:15.011Z,99.90
2023-03-27T05:22:46.234Z,99.90
2023-03-27T05:25:28.063Z,99.90
2023-03-27T05:27:57.897Z,99.90
2023-03-27T05:30:30.255Z,99.90
2023-03-27T05:33:16.591Z,99.90
2023-03-27T05:35:47.214Z,99.90
2023-03-27T05:38:18.138Z,99.90
2023-03-27T05:41:07.168Z,99.90
2023-03-27T05:43:40.351Z,99.90
2023-03-27T05:46:08.857Z,99.90
2023-03-27T05:48:39.728Z,99.90
2023-03-27T05:51:34.171Z,99.90
2023-03-27T05:54:04.370Z,99.90
2023-03-27T05:56:40.889Z,99.90
2023-03-27T05:59:09.194Z,99.90
2023-03-27T06:01:39.979Z,99.90
2023-03-27T06:04:09.535Z,99.90
2023-03-27T06:07:04.773Z,99.90
2023-03-27T06:09:35.737Z,99.90
2023-03-27T06:12:22.683Z,99.90
2023-03-27T06:14:54.869Z,99.90
2023-03-27T06:17:41.299Z,99.90
2023-03-27T06:20:12.839Z,99.90
2023-03-27T06:22:47.445Z,99.90
2023-03-27T06:25:20.366Z,99.90
2023-03-27T06:27:50.628Z,99.90
2023-03-27T06:30:21.616Z,99.90
2023-03-27T06:33:09.864Z,99.90
2023-03-27T06:35:38.362Z,99.90
2023-03-27T06:38:15.763Z,99.90
2023-03-27T06:40:47.703Z,99.90
2023-03-27T06:43:19.087Z,99.90
2023-03-27T06:45:54.713Z,99.90
2023-03-27T06:49:01.841Z,99.90
2023-03-27T06:51:31.493Z,99.90
2023-03-27T06:54:00.208Z,99.90
2023-03-27T06:56:31.129Z,99.90
2023-03-27T06:59:28.857Z,99.90
2023-03-27T07:02:01.425Z,99.90
2023-03-27T07:05:09.318Z,99.90
2023-03-27T07:07:41.576Z,99.90
2023-03-27T07:10:12.767Z,99.90
2023-03-27T07:12:46.465Z,99.90
2023-03-27T07:15:18.825Z,99.90
2023-03-27T07:17:54.368Z,99.90
2023-03-27T07:20:22.811Z,99.90
2023-03-27T07:22:51.516Z,99.90
2023-03-27T07:25:37.276Z,99.90
2023-03-27T07:28:13.964Z,99.90
2023-03-27T07:30:42.499Z,99.90
2023-03-27T07:33:13.037Z,99.90
2023-03-27T07:35:43.581Z,99.90
2023-03-27T07:38:35.480Z,99.90
2023-03-27T07:41:21.133Z,99.90
2023-03-27T07:43:50.755Z,99.90
2023-03-27T07:46:20.136Z,99.90
2023-03-27T07:48:49.186Z,99.90
2023-03-27T07:51:19.379Z,99.90
2023-03-27T07:53:49.290Z,99.90
2023-03-27T07:56:23.449Z,99.90
2023-03-27T07:59:08.167Z,99.90
2023-03-27T08:01:36.649Z,99.90
2023-03-27T08:04:05.720Z,99.90
2023-03-27T08:06:35.922Z,99.90
2023-03-27T08:09:06.410Z,99.90
2023-03-27T08:11:36.482Z,99.90
2023-03-27T08:14:05.034Z,99.90
2023-03-27T08:16:34.885Z,99.90
2023-03-27T08:19:04.513Z,99.90
2023-03-27T08:21:33.402Z,99.90
2023-03-27T08:24:04.727Z,99.90
2023-03-27T08:26:36.348Z,99.90
2023-03-27T08:29:09.052Z,99.90
2023-03-27T08:31:40.068Z,99.90
2023-03-27T08:34:08.769Z,99.90
2023-03-27T08:36:46.787Z,99.90
2023-03-27T08:39:16.586Z,99.90
2023-03-27T08:41:56.239Z,99.90
2023-03-27T08:44:35.190Z,99.90
2023-03-27T08:47:20.401Z,99.90
2023-03-27T08:49:59.452Z,99.90
2023-03-27T08:52:44.283Z,99.90
2023-03-27T08:55:28.821Z,99.90
2023-03-27T08:58:06.407Z,99.90
2023-03-27T09:00:39.597Z,99.90
2023-03-27T09:03:29.834Z,99.90
2023-03-27T09:06:03.876Z,99.90
2023-03-27T09:08:44.887Z,99.90
2023-03-27T09:11:24.552Z,99.90
2023-03-27T09:13:58.469Z,99.90
2023-03-27T09:16:31.081Z,99.90
2023-03-27T09:19:11.494Z,99.90
2023-03-27T09:21:45.104Z,99.90
2023-03-27T09:24:29.457Z,99.90
2023-03-27T09:27:20.247Z,99.90
2023-03-27T09:30:19.676Z,99.90
2023-03-27T09:32:59.563Z,99.90
2023-03-27T09:35:29.738Z,99.90
2023-03-27T09:38:04.020Z,99.90
2023-03-27T09:40:44.643Z,99.90
2023-03-27T09:43:20.482Z,99.90
2023-03-27T09:45:52.861Z,99.90
2023-03-27T09:48:29.753Z,99.90
2023-03-27T09:51:00.044Z,99.90
2023-03-27T09:53:36.840Z,98.80
2023-03-27T09:56:20.242Z,99.40
2023-03-27T09:58:52.556Z,99.60
2023-03-27T10:01:30.441Z,97.40
2023-03-27T10:04:20.513Z,98.10
2023-03-27T10:07:01.940Z,98.80
2023-03-27T10:10:07.189Z,98.90
2023-03-27T10:12:43.420Z,97.20
2023-03-27T10:15:35.437Z,96.90
2023-03-27T10:18:07.450Z,96.20
2023-03-27T10:20:36.604Z,95.70
2023-03-27T10:23:10.132Z,95.40
2023-03-27T10:25:42.061Z,94.70
2023-03-27T10:28:39.081Z,95.10
2023-03-27T10:31:30.729Z,94.70
2023-03-27T10:34:06.660Z,95.00
2023-03-27T10:36:55.670Z,95.60
2023-03-27T10:39:31.086Z,95.50
2023-03-27T10:42:11.212Z,94.80
2023-03-27T10:44:46.858Z,94.30
2023-03-27T10:47:21.100Z,94.60
2023-03-27T10:49:58.850Z,94.50
2023-03-27T10:52:46.417Z,93.80
2023-03-27T10:55:36.779Z,94.60
2023-03-27T10:58:18.420Z,95.20
2023-03-27T11:00:52.504Z,95.30
2023-03-27T11:03:27.899Z,95.40
2023-03-27T11:06:05.076Z,95.40
2023-03-27T11:08:43.015Z,94.60
2023-03-27T11:11:18.991Z,94.80
2023-03-27T11:13:52.700Z,94.50
2023-03-27T11:16:26.658Z,94.90
2023-03-27T11:19:31.250Z,93.20
2023-03-27T11:22:28.320Z,92.00
2023-03-27T11:25:03.519Z,92.80
2023-03-27T11:27:39.569Z,93.40
2023-03-27T11:30:28.365Z,93.40
2023-03-27T11:33:10.459Z,93.90
2023-03-27T11:35:43.651Z,92.60
2023-03-27T11:38:36.491Z,93.30
2023-03-27T11:41:08.207Z,91.70
2023-03-27T11:43:40.918Z,92.10
2023-03-27T11:46:39.724Z,92.20
2023-03-27T11:49:22.471Z,91.20
2023-03-27T11:52:02.940Z,91.30
2023-03-27T11:54:45.724Z,92.10
2023-03-27T11:57:24.262Z,92.70
2023-03-27T12:00:16.370Z,92.60
2023-03-27T12:03:16.716Z,92.60
2023-03-27T12:06:05.621Z,92.80
2023-03-27T12:08:57.444Z,92.10
2023-03-27T12:11:38.012Z,92.60
2023-03-27T12:14:40.633Z,92.10
2023-03-27T12:17:30.703Z,90.60
2023-03-27T12:20:28.579Z,90.20
2023-03-27T12:23:17.559Z,92.40
2023-03-27T12:26:50.398Z,90.50
2023-03-27T12:29:58.483Z,90.60
2023-03-27T12:33:00.451Z,92.50
2023-03-27T12:35:33.213Z,92.10
2023-03-27T12:38:03.805Z,91.50
2023-03-27T12:40:41.258Z,92.00
2023-03-27T12:43:29.541Z,91.10
2023-03-27T12:46:20.796Z,91.20
2023-03-27T12:49:34.213Z,91.60
2023-03-27T12:52:18.872Z,91.70
2023-03-27T12:55:09.330Z,92.20
2023-03-27T12:57:56.185Z,90.40
2023-03-27T13:00:55.303Z,91.30
2023-03-27T13:04:01.819Z,91.50
2023-03-27T13:06:42.232Z,89.30
2023-03-27T13:09:28.999Z,90.30
2023-03-27T13:12:36.752Z,90.80
2023-03-27T13:15:44.005Z,90.30
2023-03-27T13:18:30.078Z,90.30
2023-03-27T13:21:08.936Z,90.60
2023-03-27T13:23:55.542Z,91.00
2023-03-27T13:26:51.311Z,92.80
2023-03-27T13:29:22.934Z,92.30
2023-03-27T13:32:05.065Z,92.30
2023-03-27T13:35:05.034Z,93.70
2023-03-27T13:37:58.287Z,92.80
2023-03-27T13:40:40.634Z,91.40
2023-03-27T13:43:24.908Z,92.00
2023-03-27T13:46:29.285Z,92.50
2023-03-27T13:49:23.756Z,93.20
2023-03-27T13:52:36.428Z,93.40
2023-03-27T13:55:36.787Z,93.80
2023-03-27T13:58:53.245Z,93.80
2023-03-27T14:01:35.087Z,94.20
2023-03-27T14:04:17.942Z,94.10
2023-03-27T14:07:20.158Z,93.80
2023-03-27T14:10:20.056Z,94.60
2023-03-27T14:13:16.487Z,94.90
2023-03-27T14:16:31.176Z,95.80
2023-03-27T14:19:31.575Z,95.80
2023-03-27T14:22:16.343Z,94.80
2023-03-27T14:31:04.663Z,94.30
2023-03-27T14:34:31.766Z,95.00
2023-03-27T14:38:04.264Z,95.70
2023-03-27T14:40:47.700Z,95.90
2023-03-27T14:43:21.107Z,96.30
2023-03-27T14:45:57.244Z,96.30
2023-03-27T14:48:30.337Z,96.20
2023-03-27T14:51:03.209Z,96.30
2023-03-27T14:53:44.719Z,96.70
2023-03-27T14:56:30.117Z,96.70
2023-03-27T14:59:08.983Z,96.60
2023-03-27T15:01:52.357Z,96.90
2023-03-27T15:04:21.264Z,97.60
2023-03-27T15:06:56.004Z,98.20
2023-03-27T15:09:44.693Z,97.80
2023-03-27T15:12:51.307Z,98.00
2023-03-27T15:15:25.397Z,98.00
2023-03-27T15:17:55.933Z,97.60
2023-03-27T15:20:29.761Z,98.20
2023-03-27T15:23:04.992Z,98.10
2023-03-27T15:25:42.627Z,97.70
2023-03-27T15:28:23.730Z,97.50
2023-03-27T15:30:55.177Z,97.60
2023-03-27T15:33:34.642Z,98.00
2023-03-27T15:36:07.221Z,97.70
2023-03-27T15:38:38.107Z,98.20
2023-03-27T15:41:36.426Z,98.50
2023-03-27T15:44:07.381Z,98.30
2023-03-27T15:46:46.315Z,98.60
2023-03-27T15:49:29.715Z,98.00
2023-03-27T15:52:17.205Z,98.20
2023-03-27T15:54:55.433Z,97.90
2023-03-27T15:57:24.076Z,98.00
2023-03-27T15:59:55.159Z,98.40
2023-03-27T16:02:26.394Z,97.70
2023-03-27T16:04:56.813Z,96.50
2023-03-27T16:07:30.366Z,96.80
2023-03-27T16:10:02.997Z,96.80
2023-03-27T16:12:34.101Z,96.70
2023-03-27T16:15:08.308Z,96.90
2023-03-27T16:17:46.072Z,97.10
2023-03-27T16:20:36.204Z,96.60
2023-03-27T16:23:05.243Z,96.90
2023-03-27T16:25:37.134Z,96.70
2023-03-27T16:28:11.111Z,96.90
2023-03-27T16:30:42.141Z,97.10
2023-03-27T16:33:15.977Z,97.30
2023-03-27T16:35:45.453Z,96.90
2023-03-27T16:38:14.570Z,96.90
2023-03-27T16:40:47.424Z,96.60
2023-03-27T16:43:16.193Z,95.70
2023-03-27T16:45:44.918Z,95.90
2023-03-27T16:48:14.836Z,96.20
2023-03-27T16:50:43.886Z,96.70
2023-03-27T16:53:12.188Z,96.80
2023-03-27T16:55:40.655Z,96.70
2023-03-27T16:58:10.436Z,96.80
2023-03-27T17:00:38.872Z,97.00
2023-03-27T17:03:09.870Z,97.10
2023-03-27T17:05:38.610Z,97.20
2023-03-27T17:08:07.517Z,97.50
2023-03-27T17:10:35.996Z,97.10
2023-03-27T17:13:04.328Z,97.20
2023-03-27T17:15:36.922Z,97.40
2023-03-27T17:18:05.787Z,97.70
2023-03-27T17:20:34.853Z,97.50
2023-03-27T17:23:03.334Z,98.00
2023-03-27T17:25:31.710Z,98.10
2023-03-27T17:28:00.075Z,98.60
2023-03-27T17:30:38.167Z,99.00
2023-03-27T17:33:09.388Z,98.30
2023-03-27T17:35:39.814Z,98.20
2023-03-27T17:38:08.391Z,98.30
2023-03-27T17:40:41.384Z,98.00
2023-03-27T17:43:09.731Z,97.90
2023-03-27T17:45:41.800Z,98.70
2023-03-27T17:48:12.123Z,98.30
2023-03-27T17:50:40.575Z,98.00
2023-03-27T17:53:09.008Z,97.70
2023-03-27T17:55:40.000Z,98.00
2023-03-27T17:58:10.212Z,98.10
2023-03-27T18:00:39.461Z,97.50
2023-03-27T18:03:09.361Z,96.90
2023-03-27T18:05:42.195Z,97.30
2023-03-27T18:08:11.904Z,95.00
2023-03-27T18:10:45.123Z,94.90
2023-03-27T18:13:13.576Z,95.70
2023-03-27T18:15:42.428Z,95.40
2023-03-27T18:18:11.216Z,96.10
2023-03-27T18:20:41.628Z,96.10
2023-03-27T18:23:10.582Z,95.10
2023-03-27T18:25:42.038Z,95.00
2023-03-27T18:28:11.388Z,96.00
2023-03-27T18:30:39.853Z,95.90
2023-03-27T18:33:08.828Z,96.00
2023-03-27T18:35:37.995Z,95.80
2023-03-27T18:38:07.823Z,96.30
2023-03-27T18:40:36.154Z,96.20
2023-03-27T18:43:04.549Z,96.30
2023-03-27T18:45:33.377Z,96.40
2023-03-27T18:48:01.756Z,97.10
2023-03-27T18:50:30.157Z,96.70
2023-03-27T18:52:58.387Z,96.60
2023-03-27T18:56:00.623Z,95.70
2023-03-27T18:58:30.484Z,95.30
2023-03-27T19:01:08.406Z,94.70
2023-03-27T19:03:44.584Z,94.60
2023-03-27T19:06:13.875Z,94.20
2023-03-27T19:08:47.354Z,94.90
2023-03-27T19:11:17.439Z,95.60
2023-03-27T19:14:06.350Z,95.00
2023-03-27T19:16:38.715Z,95.20
2023-03-27T19:19:26.237Z,93.20
2023-03-27T19:21:55.053Z,93.30
2023-03-27T19:24:36.599Z,93.40
2023-03-27T19:27:07.021Z,93.20
2023-03-27T19:29:51.866Z,92.80
2023-03-27T19:32:20.463Z,92.80
2023-03-27T19:34:49.027Z,93.70
2023-03-27T19:37:17.444Z,94.30
2023-03-27T19:39:45.918Z,93.30
2023-03-27T19:42:16.263Z,93.50
2023-03-27T19:44:44.662Z,93.70
2023-03-27T19:47:13.116Z,93.60
2023-03-27T19:49:42.673Z,94.50
2023-03-27T19:52:30.034Z,93.70
2023-03-27T19:54:59.529Z,94.40
2023-03-27T19:57:31.031Z,94.80
2023-03-27T19:59:59.401Z,95.30
2023-03-27T20:02:31.076Z,95.20
2023-03-27T20:04:59.575Z,95.60
2023-03-27T20:07:28.087Z,95.00
2023-03-27T20:09:56.480Z,94.90
2023-03-27T20:12:27.717Z,95.50
2023-03-27T20:15:10.879Z,95.70
2023-03-27T20:17:42.950Z,95.50
2023-03-27T20:20:12.651Z,95.10
2023-03-27T20:22:57.095Z,95.00
2023-03-27T20:25:28.048Z,95.70
2023-03-27T20:27:56.387Z,95.20
2023-03-27T20:30:26.613Z,96.40
2023-03-27T20:32:55.351Z,95.70
2023-03-27T20:35:25.057Z,95.40
2023-03-27T20:37:57.866Z,96.10
2023-03-27T20:40:27.267Z,96.20
2023-03-27T20:43:05.812Z,96.40
2023-03-27T20:45:42.900Z,96.80
2023-03-27T20:48:15.017Z,96.70
2023-03-27T20:50:49.225Z,96.60
2023-03-27T20:53:19.543Z,96.60
2023-03-27T20:55:59.278Z,96.80
2023-03-27T20:58:29.169Z,96.70
2023-03-27T21:01:03.842Z,97.40
2023-03-27T21:03:35.054Z,97.00
2023-03-27T21:06:06.788Z,97.10
2023-03-27T21:08:35.654Z,96.70
2023-03-27T21:11:04.482Z,96.90
2023-03-27T21:13:33.080Z,96.80
2023-03-27T21:16:02.971Z,96.60
2023-03-27T21:18:32.100Z,96.70
2023-03-27T21:21:00.494Z,96.70
2023-03-27T21:23:28.844Z,96.90
2023-03-27T21:25:58.567Z,97.00
2023-03-27T21:28:27.229Z,96.80
2023-03-27T21:30:55.597Z,96.90
2023-03-27T21:33:25.284Z,97.00
2023-03-27T21:35:53.518Z,96.80
2023-03-27T21:38:21.718Z,96.70
2023-03-27T21:40:50.011Z,96.80
2023-03-27T21:43:18.353Z,96.80
2023-03-27T21:45:49.433Z,96.60
2023-03-27T21:48:17.845Z,96.90
2023-03-27T21:50:48.125Z,96.80
2023-03-27T21:53:16.985Z,96.80
2023-03-27T21:55:47.445Z,96.90
2023-03-27T21:58:15.681Z,97.00
2023-03-27T22:00:46.004Z,97.00
2023-03-27T22:03:14.291Z,97.20
2023-03-27T22:05:42.799Z,97.20
2023-03-27T22:08:12.452Z,97.40
2023-03-27T22:10:41.432Z,97.60
2023-03-27T22:13:09.662Z,97.40
2023-03-27T22:15:38.056Z,97.60
2023-03-27T22:18:06.459Z,97.60
2023-03-27T22:20:49.668Z,97.40
2023-03-27T22:23:21.727Z,97.90
2023-03-27T22:25:54.647Z,97.50
2023-03-27T22:28:22.936Z,97.40
2023-03-27T22:30:52.284Z,97.40
2023-03-27T22:33:20.881Z,97.80
2023-03-27T22:35:50.062Z,98.40
2023-03-27T22:38:19.219Z,98.50
2023-03-27T22:40:48.975Z,98.30
2023-03-27T22:43:22.761Z,98.70
2023-03-27T22:45:52.512Z,98.70
2023-03-27T22:48:21.059Z,98.80
2023-03-27T22:50:55.519Z,98.50
2023-03-27T22:53:24.763Z,99.30
2023-03-27T22:55:56.720Z,99.80
2023-03-27T22:58:25.844Z,99.90
2023-03-27T23:00:55.464Z,99.20
2023-03-27T23:03:24.946Z,98.90
2023-03-27T23:05:54.602Z,98.90
2023-03-27T23:08:27.092Z,98.70
2023-03-27T23:10:58.088Z,98.50
2023-03-27T23:13:27.958Z,98.40
2023-03-27T23:19:43.252Z,98.40
2023-03-27T23:22:11.900Z,98.60
2023-03-27T23:24:40.313Z,98.50
2023-03-27T23:27:39.175Z,98.50
2023-03-27T23:30:11.506Z,98.50
2023-03-27T23:32:40.193Z,98.70
2023-03-27T23:35:10.330Z,98.90
2023-03-27T23:37:39.423Z,98.80
2023-03-27T23:40:09.529Z,99.00
2023-03-27T23:42:39.763Z,98.90
2023-03-27T23:45:10.597Z,98.90
2023-03-27T23:47:40.161Z,98.90
2023-03-27T23:50:09.276Z,98.90
2023-03-27T23:52:37.562Z,99.00
2023-03-27T23:55:06.555Z,99.30
2023-03-27T23:57:34.777Z,98.90
